Time;durP1;ratioP1;P1;durP2;ratioP2;P2;SDS_P1;SDS_P2;PMS_P1;PMS_P2;Temp;Humidity;BMP_temperature;BMP_pressure;BME280_temperature;BME280_humidity;BME280_pressure;Samples;Min_cycle;Max_cycle;Signal;HPM_P1;HPM_P2
2021/06/14 00:00:50;;;;;;;7.57;5.65;;;15.90;71.60;;;;;;6121899;23;20333;-76
2021/06/14 00:03:17;;;;;;;10.27;6.22;;;15.90;71.50;;;;;;6122237;23;20006;-76
2021/06/14 00:05:44;;;;;;;6.68;5.97;;;15.90;71.50;;;;;;6122538;23;20445;-77
2021/06/14 00:08:17;;;;;;;7.30;5.78;;;15.90;71.60;;;;;;6120566;23;20049;-76
2021/06/14 00:10:45;;;;;;;10.57;6.55;;;15.90;71.50;;;;;;6122931;23;20002;-76
2021/06/14 00:13:13;;;;;;;7.80;6.03;;;15.80;71.50;;;;;;6121029;23;20009;-76
2021/06/14 00:15:42;;;;;;;8.88;5.65;;;15.80;71.50;;;;;;6122594;23;20048;-76
2021/06/14 00:18:09;;;;;;;8.15;6.47;;;15.80;71.50;;;;;;6122076;23;20006;-77
2021/06/14 00:20:37;;;;;;;9.65;5.28;;;15.80;71.50;;;;;;6121724;23;20375;-77
2021/06/14 00:23:07;;;;;;;9.38;5.55;;;15.80;71.40;;;;;;6122426;23;20006;-76
2021/06/14 00:25:34;;;;;;;5.78;5.18;;;15.80;71.40;;;;;;6121255;23;20017;-77
2021/06/14 00:28:01;;;;;;;8.07;4.90;;;15.80;71.40;;;;;;6122578;23;20002;-76
2021/06/14 00:30:32;;;;;;;7.32;5.68;;;15.80;71.40;;;;;;6121592;23;20005;-75
2021/06/14 00:32:58;;;;;;;10.23;5.70;;;15.80;71.50;;;;;;6122465;23;20006;-77
2021/06/14 00:35:25;;;;;;;6.35;5.75;;;15.80;71.50;;;;;;6119983;23;20005;-76
2021/06/14 00:37:51;;;;;;;7.53;6.13;;;15.70;71.50;;;;;;6121588;23;20102;-76
2021/06/14 00:40:19;;;;;;;13.55;5.28;;;15.70;71.50;;;;;;6122855;23;20716;-75
2021/06/14 00:42:45;;;;;;;9.35;6.07;;;15.70;71.50;;;;;;6121278;23;20077;-76
2021/06/14 00:45:16;;;;;;;6.60;5.40;;;15.70;71.40;;;;;;6122558;23;20366;-77
2021/06/14 00:47:46;;;;;;;6.50;5.13;;;15.70;71.40;;;;;;6120878;23;20005;-75
2021/06/14 00:50:18;;;;;;;9.07;5.20;;;15.70;71.30;;;;;;6122080;23;20017;-76
2021/06/14 00:52:44;;;;;;;7.45;5.45;;;15.70;71.30;;;;;;6119941;23;20006;-77
2021/06/14 00:55:13;;;;;;;8.15;6.10;;;15.70;71.30;;;;;;6121364;23;20012;-76
2021/06/14 00:57:39;;;;;;;7.18;5.60;;;15.60;71.30;;;;;;6122300;23;20481;-76
2021/06/14 01:00:07;;;;;;;8.80;5.32;;;15.60;71.30;;;;;;6120601;23;20014;-77
2021/06/14 01:02:34;;;;;;;7.82;5.07;;;15.60;71.30;;;;;;6121967;23;20005;-76
2021/06/14 01:05:00;;;;;;;8.60;5.63;;;15.60;71.40;;;;;;6118961;23;20012;-76
2021/06/14 01:07:28;;;;;;;6.90;4.50;;;15.60;71.50;;;;;;6120215;23;20016;-76
2021/06/14 01:09:55;;;;;;;8.57;5.53;;;15.60;71.50;;;;;;6119456;23;20093;-76
2021/06/14 01:12:28;;;;;;;6.28;4.57;;;15.60;71.50;;;;;;6121668;23;19994;-76
2021/06/14 01:15:14;;;;;;;8.25;5.28;;;15.60;71.40;;;;;;6122301;23;19998;-77
2021/06/14 01:17:56;;;;;;;7.35;5.70;;;15.60;71.40;;;;;;6118849;23;20303;-76
2021/06/14 01:21:04;;;;;;;7.15;4.65;;;15.60;71.30;;;;;;6122319;23;20338;-76
2021/06/14 01:23:57;;;;;;;7.53;5.97;;;15.60;71.30;;;;;;6122054;23;20009;-77
2021/06/14 01:26:25;;;;;;;6.82;5.40;;;15.60;71.20;;;;;;6120564;23;20452;-78
2021/06/14 01:28:58;;;;;;;9.82;6.97;;;15.50;71.10;;;;;;6121928;23;20289;-74
2021/06/14 01:31:28;;;;;;;7.53;6.07;;;15.50;71.10;;;;;;6121268;23;20037;-74
2021/06/14 01:33:56;;;;;;;10.07;7.68;;;15.50;71.00;;;;;;6120589;23;20381;-76
2021/06/14 01:36:30;;;;;;;9.10;7.20;;;15.50;71.00;;;;;;6121822;23;20002;-76
2021/06/14 01:38:58;;;;;;;8.23;6.97;;;15.40;70.90;;;;;;6120348;23;20014;-77
2021/06/14 01:41:27;;;;;;;10.10;6.38;;;15.50;70.80;;;;;;6122026;23;20006;-76
2021/06/14 01:43:54;;;;;;;9.48;6.90;;;15.50;70.70;;;;;;6120735;23;20080;-76
2021/06/14 01:46:24;;;;;;;11.18;7.15;;;15.50;70.60;;;;;;6121104;23;20013;-76
2021/06/14 01:48:52;;;;;;;10.57;7.22;;;15.40;70.50;;;;;;6121091;23;20002;-75
2021/06/14 01:51:27;;;;;;;9.05;6.80;;;15.40;70.50;;;;;;6121129;23;19998;-75
2021/06/14 01:54:07;;;;;;;9.30;7.03;;;15.40;70.50;;;;;;6121880;23;20084;-75
2021/06/14 01:56:35;;;;;;;7.03;6.20;;;15.40;70.50;;;;;;6120783;23;20030;-75
2021/06/14 01:59:03;;;;;;;8.63;7.60;;;15.40;70.40;;;;;;6121526;23;20446;-76
2021/06/14 02:01:32;;;;;;;8.70;6.88;;;15.40;70.40;;;;;;6118843;23;20038;-76
2021/06/14 02:03:59;;;;;;;9.00;6.45;;;15.40;70.30;;;;;;6121484;23;20006;-76
2021/06/14 02:06:39;;;;;;;8.98;8.02;;;15.40;70.20;;;;;;6120864;23;20461;-76
2021/06/14 02:09:11;;;;;;;8.13;6.57;;;15.40;70.20;;;;;;6120491;23;20523;-75
2021/06/14 02:11:48;;;;;;;10.15;7.80;;;15.40;70.30;;;;;;6121974;23;20005;-77
2021/06/14 02:14:21;;;;;;;7.10;6.43;;;15.30;70.20;;;;;;6114636;23;20005;-77
2021/06/14 02:16:48;;;;;;;7.45;6.70;;;15.30;70.90;;;;;;6121474;23;20037;-76
2021/06/14 02:19:15;;;;;;;6.88;6.18;;;15.30;70.20;;;;;;6120898;23;20014;-76
2021/06/14 02:21:42;;;;;;;7.72;6.90;;;15.30;70.20;;;;;;6120865;23;20025;-75
2021/06/14 02:24:09;;;;;;;9.05;7.45;;;15.30;70.10;;;;;;6121714;23;19998;-76
2021/06/14 02:26:43;;;;;;;8.10;7.20;;;15.30;70.10;;;;;;6120280;23;20016;-76
2021/06/14 02:29:10;;;;;;;9.32;7.45;;;15.30;70.10;;;;;;6121529;23;20077;-76
2021/06/14 02:31:36;;;;;;;11.13;7.75;;;15.20;70.00;;;;;;6119904;23;20117;-76
2021/06/14 02:34:08;;;;;;;7.82;7.03;;;15.20;70.10;;;;;;6119987;23;20385;-76
2021/06/14 02:36:36;;;;;;;9.63;7.07;;;15.30;70.10;;;;;;6120977;23;20010;-77
2021/06/14 02:39:09;;;;;;;11.05;8.13;;;15.20;70.00;;;;;;6118841;23;20334;-75
2021/06/14 02:41:39;;;;;;;10.45;7.47;;;15.20;70.10;;;;;;6121676;23;20002;-76
2021/06/14 02:44:06;;;;;;;8.40;7.53;;;15.20;70.10;;;;;;6119862;23;20811;-76
2021/06/14 02:46:41;;;;;;;9.18;7.63;;;15.20;70.20;;;;;;6121298;23;20065;-76
2021/06/14 02:49:19;;;;;;;8.40;7.17;;;15.20;70.30;;;;;;6118495;23;20089;-77
2021/06/14 02:51:47;;;;;;;8.77;7.20;;;15.20;70.40;;;;;;6121049;23;20013;-76
2021/06/14 02:54:29;;;;;;;11.20;8.05;;;15.20;70.50;;;;;;6121483;23;20010;-76
2021/06/14 02:56:59;;;;;;;10.52;7.18;;;15.20;70.60;;;;;;6118875;23;20338;-76
2021/06/14 02:59:31;;;;;;;11.48;7.45;;;15.20;70.60;;;;;;6119719;23;20025;-75
2021/06/14 03:01:58;;;;;;;8.68;7.70;;;15.10;70.70;;;;;;6120272;23;20009;-76
2021/06/14 03:04:26;;;;;;;10.27;7.82;;;15.10;70.80;;;;;;6121579;23;20032;-76
2021/06/14 03:06:54;;;;;;;8.07;7.28;;;15.10;70.80;;;;;;6121187;23;20433;-76
2021/06/14 03:09:21;;;;;;;9.30;7.22;;;15.10;70.80;;;;;;6120212;23;20021;-76
2021/06/14 03:11:49;;;;;;;13.73;6.78;;;15.10;71.00;;;;;;6120660;23;20009;-77
2021/06/14 03:14:16;;;;;;;8.18;7.20;;;15.10;71.00;;;;;;6120536;23;20326;-76
2021/06/14 03:16:45;;;;;;;10.27;6.75;;;15.10;71.00;;;;;;6121319;23;20010;-76
2021/06/14 03:19:12;;;;;;;9.98;8.38;;;15.10;71.00;;;;;;6120515;23;20014;-76
2021/06/14 03:21:40;;;;;;;9.70;7.05;;;15.10;71.10;;;;;;6123266;23;20040;-76
2021/06/14 03:24:07;;;;;;;9.07;7.70;;;15.10;71.20;;;;;;6122146;23;20010;-76
2021/06/14 03:26:42;;;;;;;10.05;6.65;;;15.10;71.30;;;;;;6122986;23;20414;-75
2021/06/14 03:29:15;;;;;;;17.08;11.60;;;15.10;71.90;;;;;;6123255;23;20016;-76
2021/06/14 03:31:42;;;;;;;17.67;11.40;;;15.10;71.60;;;;;;6121559;23;20330;-76
2021/06/14 03:34:11;;;;;;;13.27;10.50;;;15.10;71.80;;;;;;6122262;23;20002;-76
2021/06/14 03:36:39;;;;;;;9.73;8.73;;;15.10;71.80;;;;;;6121457;23;20032;-75
2021/06/14 03:39:06;;;;;;;10.18;9.00;;;15.10;71.90;;;;;;6122604;23;20009;-75
2021/06/14 03:41:33;;;;;;;13.93;9.15;;;15.10;71.90;;;;;;6121781;23;20141;-75
2021/06/14 03:44:04;;;;;;;8.93;6.68;;;15.10;71.90;;;;;;6122518;23;20009;-76
2021/06/14 03:46:30;;;;;;;8.32;6.88;;;15.10;71.90;;;;;;6123424;23;20006;-78
2021/06/14 03:48:57;;;;;;;11.50;7.97;;;15.10;71.80;;;;;;6121624;23;20077;-74
2021/06/14 03:51:23;;;;;;;11.18;7.45;;;15.10;71.80;;;;;;6123867;23;20065;-78
2021/06/14 03:53:59;;;;;;;10.82;7.03;;;15.00;71.90;;;;;;6121546;23;20303;-78
2021/06/14 03:56:28;;;;;;;13.57;8.10;;;15.00;71.90;;;;;;6122765;23;20364;-79
2021/06/14 03:58:55;;;;;;;8.70;7.43;;;15.00;72.20;;;;;;6122441;23;20476;-78
2021/06/14 04:01:23;;;;;;;10.45;8.73;;;15.00;72.20;;;;;;6122066;23;20411;-76
2021/06/14 04:04:37;;;;;;;12.23;8.48;;;15.00;72.20;;;;;;6122845;23;20002;-79
2021/06/14 04:06:39;;;;;;;9.98;7.55;;;15.00;72.30;;;;;;6109871;23;20446;-75
2021/06/14 04:09:06;;;;;;;11.32;9.30;;;15.00;72.30;;;;;;6122582;23;20517;-75
2021/06/14 04:11:35;;;;;;;13.60;9.82;;;15.00;72.90;;;;;;6119883;23;20097;-77
2021/06/14 04:14:02;;;;;;;17.17;12.10;;;15.00;72.30;;;;;;6122179;23;20013;-77
2021/06/14 04:16:28;;;;;;;11.90;10.18;;;15.00;72.30;;;;;;6122320;23;20036;-76
2021/06/14 04:18:55;;;;;;;13.13;10.60;;;15.00;72.40;;;;;;6121435;23;20624;-77
2021/06/14 04:21:21;;;;;;;12.05;9.50;;;15.00;72.50;;;;;;6122556;23;20005;-79
2021/06/14 04:23:48;;;;;;;10.63;9.40;;;15.00;72.60;;;;;;6120522;23;20014;-76
2021/06/14 04:26:15;;;;;;;13.77;10.77;;;15.00;72.60;;;;;;6122720;23;20084;-75
2021/06/14 04:28:42;;;;;;;14.63;10.73;;;15.00;72.70;;;;;;6121130;23;20446;-74
2021/06/14 04:31:09;;;;;;;14.48;10.85;;;15.00;72.80;;;;;;6122128;23;20001;-74
2021/06/14 04:33:35;;;;;;;14.70;11.20;;;15.00;72.80;;;;;;6121933;23;20410;-74
2021/06/14 04:36:02;;;;;;;13.20;11.27;;;15.00;73.50;;;;;;6121908;23;20354;-74
2021/06/14 04:38:30;;;;;;;20.55;11.57;;;15.00;72.90;;;;;;6119551;23;20014;-74
2021/06/14 04:40:57;;;;;;;14.10;11.00;;;14.90;72.90;;;;;;6120853;23;20014;-80
2021/06/14 04:43:29;;;;;;;15.48;11.30;;;15.00;72.90;;;;;;6120363;23;20642;-76
2021/06/14 04:45:56;;;;;;;18.95;13.10;;;14.90;73.00;;;;;;6121115;23;20017;-77
2021/06/14 04:48:22;;;;;;;16.45;12.27;;;14.90;73.00;;;;;;6122071;23;20009;-76
2021/06/14 04:50:49;;;;;;;18.55;14.32;;;14.90;73.00;;;;;;6121897;23;20086;-77
2021/06/14 04:53:16;;;;;;;20.17;13.05;;;14.90;73.00;;;;;;6121814;23;20017;-76
2021/06/14 04:55:43;;;;;;;18.15;13.23;;;14.90;73.10;;;;;;6122033;23;20012;-76
2021/06/14 04:58:10;;;;;;;21.48;13.65;;;14.90;73.20;;;;;;6120496;23;20081;-75
2021/06/14 05:00:36;;;;;;;18.13;14.05;;;14.90;73.40;;;;;;6121766;23;20327;-76
2021/06/14 05:03:03;;;;;;;18.50;13.15;;;14.90;73.50;;;;;;6121133;23;20002;-76
2021/06/14 05:05:30;;;;;;;21.58;13.20;;;14.90;73.60;;;;;;6121523;23;20018;-76
2021/06/14 05:08:00;;;;;;;16.90;13.25;;;14.90;73.70;;;;;;6121165;23;20030;-75
2021/06/14 05:10:26;;;;;;;21.63;14.23;;;14.90;73.80;;;;;;6121733;23;20459;-76
2021/06/14 05:12:53;;;;;;;18.80;13.85;;;14.90;74.00;;;;;;6122502;23;20615;-76
2021/06/14 05:15:19;;;;;;;20.23;13.80;;;14.90;74.20;;;;;;6120885;23;20013;-75
2021/06/14 05:17:47;;;;;;;22.13;14.13;;;14.90;74.30;;;;;;6121933;23;20005;-76
2021/06/14 05:20:14;;;;;;;18.83;13.55;;;15.00;74.50;;;;;;6120747;23;20357;-75
2021/06/14 05:22:41;;;;;;;18.38;14.10;;;15.00;74.60;;;;;;6121827;23;20046;-77
2021/06/14 05:25:08;;;;;;;19.00;13.27;;;15.00;74.60;;;;;;6121160;23;20141;-76
2021/06/14 05:27:34;;;;;;;18.15;11.88;;;15.00;74.70;;;;;;6121694;23;20045;-76
2021/06/14 05:30:01;;;;;;;18.80;12.98;;;15.00;74.70;;;;;;6119963;23;20089;-77
2021/06/14 05:32:28;;;;;;;18.50;12.82;;;15.00;74.80;;;;;;6121092;23;20020;-75
2021/06/14 05:34:54;;;;;;;16.27;11.90;;;15.00;74.90;;;;;;6122715;23;20009;-76
2021/06/14 05:37:21;;;;;;;17.10;12.73;;;15.00;75.00;;;;;;6120659;23;20010;-76
2021/06/14 05:39:48;;;;;;;14.27;10.73;;;15.00;75.10;;;;;;6121928;23;20438;-76
2021/06/14 05:42:14;;;;;;;17.75;12.55;;;15.00;75.20;;;;;;6120391;23;19994;-76
2021/06/14 05:44:40;;;;;;;17.33;12.52;;;15.00;75.40;;;;;;6121763;23;20136;-77
2021/06/14 05:47:07;;;;;;;13.80;11.07;;;15.00;75.50;;;;;;6120929;23;20334;-75
2021/06/14 05:49:34;;;;;;;12.43;10.80;;;15.00;75.60;;;;;;6121097;23;19998;-76
2021/06/14 05:52:00;;;;;;;11.80;10.23;;;15.00;75.70;;;;;;6120017;23;20413;-76
2021/06/14 05:54:27;;;;;;;15.48;11.38;;;15.00;75.70;;;;;;6120641;23;20002;-76
2021/06/14 05:56:54;;;;;;;16.58;12.57;;;15.00;75.80;;;;;;6121726;23;20004;-76
2021/06/14 05:59:20;;;;;;;17.77;11.55;;;15.10;75.90;;;;;;6120116;23;20493;-77
2021/06/14 06:01:47;;;;;;;15.73;12.93;;;15.00;75.80;;;;;;6120975;23;20044;-77
2021/06/14 06:04:14;;;;;;;12.77;11.40;;;15.00;75.90;;;;;;6121043;23;20002;-77
2021/06/14 06:06:41;;;;;;;16.17;12.13;;;15.10;76.00;;;;;;6121431;23;20338;-76
2021/06/14 06:09:07;;;;;;;15.85;12.20;;;15.10;76.00;;;;;;6121463;23;20371;-77
2021/06/14 06:11:34;;;;;;;18.15;14.15;;;15.10;76.10;;;;;;6120416;23;20006;-76
2021/06/14 06:14:00;;;;;;;18.30;14.77;;;15.10;76.70;;;;;;6121845;23;20021;-76
2021/06/14 06:16:27;;;;;;;17.33;14.00;;;15.10;76.20;;;;;;6121096;23;20002;-77
2021/06/14 06:18:53;;;;;;;15.68;13.75;;;15.10;76.20;;;;;;6121440;23;20022;-76
2021/06/14 06:21:21;;;;;;;15.30;13.35;;;15.10;76.30;;;;;;6120435;23;20005;-76
2021/06/14 06:23:47;;;;;;;15.23;13.60;;;15.10;76.30;;;;;;6121484;23;20084;-77
2021/06/14 06:26:17;;;;;;;20.27;12.80;;;15.00;76.20;;;;;;6120890;23;20006;-77
2021/06/14 06:28:43;;;;;;;14.35;12.85;;;15.10;76.30;;;;;;6120790;23;19998;-76
2021/06/14 06:31:10;;;;;;;13.43;11.65;;;15.10;76.30;;;;;;6122148;23;20002;-76
2021/06/14 06:33:37;;;;;;;12.52;11.23;;;15.10;76.30;;;;;;6120435;23;20049;-77
2021/06/14 06:36:04;;;;;;;13.43;11.27;;;15.10;76.40;;;;;;6122018;23;20009;-76
2021/06/14 06:38:31;;;;;;;13.85;11.07;;;15.10;76.40;;;;;;6119941;23;20045;-76
2021/06/14 06:40:57;;;;;;;15.50;11.50;;;15.10;76.50;;;;;;6121509;23;20130;-77
2021/06/14 06:43:24;;;;;;;15.60;12.23;;;15.10;76.50;;;;;;6120603;23;20081;-77
2021/06/14 06:45:50;;;;;;;17.30;13.43;;;15.00;76.50;;;;;;6120954;23;19998;-76
2021/06/14 06:48:17;;;;;;;16.17;12.63;;;15.10;76.60;;;;;;6121611;23;20101;-77
2021/06/14 06:50:43;;;;;;;15.80;11.75;;;15.00;76.50;;;;;;6119895;23;20002;-77
2021/06/14 06:53:10;;;;;;;17.42;11.73;;;15.00;76.50;;;;;;6120276;23;20002;-76
2021/06/14 06:55:36;;;;;;;15.60;12.23;;;15.00;76.50;;;;;;6122018;23;20002;-76
2021/06/14 06:58:04;;;;;;;19.85;13.25;;;15.00;76.50;;;;;;6122659;23;20092;-77
2021/06/14 07:00:31;;;;;;;15.40;12.57;;;15.00;76.50;;;;;;6121888;23;20009;-77
2021/06/14 07:02:58;;;;;;;17.40;14.10;;;15.00;76.50;;;;;;6123013;23;20002;-77
2021/06/14 07:05:25;;;;;;;18.40;13.50;;;15.00;76.60;;;;;;6123703;23;20456;-77
2021/06/14 07:08:31;;;;;;;19.05;13.07;;;15.00;76.60;;;;;;6122189;23;20374;-77
2021/06/14 07:11:37;;;;;;;20.60;13.50;;;15.00;76.70;;;;;;6123340;23;20465;-75
2021/06/14 07:14:43;;;;;;;20.60;12.80;;;15.00;76.70;;;;;;6123295;23;19998;-76
2021/06/14 07:17:49;;;;;;;17.17;12.98;;;15.00;76.80;;;;;;6121829;23;20430;-77
2021/06/14 07:20:57;;;;;;;14.65;12.38;;;15.00;76.90;;;;;;6122706;23;20123;-77
2021/06/14 07:23:23;;;;;;;16.55;12.30;;;15.00;77.10;;;;;;6122968;23;20013;-77
2021/06/14 07:25:50;;;;;;;19.15;13.52;;;15.00;77.20;;;;;;6122099;23;20081;-77
2021/06/14 07:28:16;;;;;;;16.42;13.35;;;15.10;77.40;;;;;;6123159;23;20397;-76
2021/06/14 07:30:43;;;;;;;21.65;14.20;;;15.10;77.40;;;;;;6120152;23;20010;-77
2021/06/14 07:33:10;;;;;;;20.85;14.35;;;15.10;77.60;;;;;;6122769;23;20013;-77
2021/06/14 07:35:37;;;;;;;23.70;14.77;;;15.10;77.70;;;;;;6120929;23;20459;-77
2021/06/14 07:38:05;;;;;;;23.38;15.98;;;15.10;77.80;;;;;;6120078;23;20075;-76
2021/06/14 07:40:32;;;;;;;24.13;16.25;;;15.10;77.90;;;;;;6123508;23;20001;-76
2021/06/14 07:42:58;;;;;;;26.85;15.55;;;15.10;78.00;;;;;;6121630;23;20386;-76
2021/06/14 07:45:25;;;;;;;31.92;18.75;;;15.10;78.10;;;;;;6122969;23;20025;-76
2021/06/14 07:47:53;;;;;;;32.45;19.55;;;15.10;78.20;;;;;;6121289;23;20013;-76
2021/06/14 07:50:20;;;;;;;30.95;21.88;;;15.20;78.30;;;;;;6121243;23;20434;-76
2021/06/14 07:52:47;;;;;;;30.23;20.20;;;15.20;78.30;;;;;;6122301;23;19998;-77
2021/06/14 07:55:13;;;;;;;34.60;21.45;;;15.20;78.40;;;;;;6121889;23;20457;-76
2021/06/14 07:57:41;;;;;;;45.17;25.85;;;15.20;78.50;;;;;;6123185;23;20009;-76
2021/06/14 08:00:10;;;;;;;38.55;26.27;;;15.20;78.50;;;;;;6121398;23;20532;-76
2021/06/14 08:02:39;;;;;;;43.60;25.65;;;15.20;78.50;;;;;;6122791;23;20017;-76
2021/06/14 08:05:06;;;;;;;41.67;26.55;;;15.30;78.70;;;;;;6119228;23;20430;-76
2021/06/14 08:07:34;;;;;;;46.22;27.25;;;15.30;78.70;;;;;;6122504;23;20002;-76
2021/06/14 08:10:04;;;;;;;41.63;26.38;;;15.30;78.80;;;;;;6122042;23;20028;-76
2021/06/14 08:12:32;;;;;;;39.47;24.73;;;15.30;78.90;;;;;;6122039;23;19994;-76
2021/06/14 08:14:59;;;;;;;38.55;26.92;;;15.40;79.00;;;;;;6122963;23;19998;-76
2021/06/14 08:17:28;;;;;;;44.05;23.85;;;15.40;79.00;;;;;;6121583;23;20466;-76
2021/06/14 08:20:22;;;;;;;47.45;25.98;;;15.40;79.10;;;;;;6122293;23;20611;-75
2021/06/14 08:25:15;;;;;;;70.03;38.58;;;15.50;79.20;;;;;;6122981;23;20013;-76
2021/06/14 08:27:44;;;;;;;66.25;41.22;;;15.50;79.20;;;;;;6122026;23;20430;-76
2021/06/14 08:30:17;;;;;;;64.75;37.63;;;15.50;79.20;;;;;;6121141;23;19998;-76
2021/06/14 08:32:44;;;;;;;60.72;37.25;;;15.60;79.30;;;;;;6122555;23;20006;-76
2021/06/14 08:35:14;;;;;;;47.78;31.08;;;15.60;79.30;;;;;;6120818;23;20005;-76
2021/06/14 08:37:42;;;;;;;48.92;28.55;;;15.60;79.30;;;;;;6122332;23;20078;-76
2021/06/14 08:40:10;;;;;;;46.72;27.63;;;15.70;79.40;;;;;;6121499;23;20014;-76
2021/06/14 08:42:36;;;;;;;43.08;25.98;;;15.70;79.40;;;;;;6121896;23;20441;-76
2021/06/14 08:45:05;;;;;;;36.08;24.00;;;15.70;79.40;;;;;;6122211;23;20005;-77
2021/06/14 08:47:32;;;;;;;44.20;23.55;;;15.80;79.40;;;;;;6121188;23;20334;-75
2021/06/14 08:49:59;;;;;;;33.42;20.92;;;15.80;79.40;;;;;;6121544;23;20426;-75
2021/06/14 08:52:26;;;;;;;33.50;20.88;;;15.90;79.40;;;;;;6120899;23;20002;-76
2021/06/14 08:54:52;;;;;;;34.97;20.73;;;15.90;79.40;;;;;;6122673;23;20002;-76
2021/06/14 08:57:19;;;;;;;30.17;21.00;;;15.90;79.40;;;;;;6121048;23;20474;-75
2021/06/14 08:59:45;;;;;;;32.80;20.38;;;16.00;79.50;;;;;;6121259;23;20010;-76
2021/06/14 09:02:12;;;;;;;28.65;19.17;;;16.00;79.50;;;;;;6121932;23;20005;-76
2021/06/14 09:04:39;;;;;;;30.60;19.52;;;16.10;79.50;;;;;;6120854;23;20006;-75
2021/06/14 09:07:06;;;;;;;22.98;16.95;;;16.10;79.50;;;;;;6122169;23;20009;-76
2021/06/14 09:09:34;;;;;;;25.05;17.73;;;16.10;79.60;;;;;;6120341;23;20018;-75
2021/06/14 09:12:02;;;;;;;24.95;17.20;;;16.20;79.70;;;;;;6122552;23;20013;-76
2021/06/14 09:14:36;;;;;;;24.70;16.90;;;16.20;79.70;;;;;;6120751;23;20430;-76
2021/06/14 09:17:06;;;;;;;21.48;16.77;;;16.20;79.90;;;;;;6121848;23;20016;-76
2021/06/14 09:19:35;;;;;;;25.00;16.50;;;16.30;80.00;;;;;;6121563;23;20014;-75
2021/06/14 09:22:15;;;;;;;24.05;17.92;;;16.30;80.10;;;;;;6121044;23;20507;-75
2021/06/14 09:24:58;;;;;;;19.52;15.32;;;16.40;80.20;;;;;;6121932;23;20077;-76
2021/06/14 09:27:36;;;;;;;20.92;14.35;;;16.40;80.30;;;;;;6120760;23;20010;-76
2021/06/14 09:30:27;;;;;;;22.85;15.38;;;16.50;80.50;;;;;;6121720;23;20024;-76
2021/06/14 09:33:03;;;;;;;22.23;16.33;;;16.50;80.50;;;;;;6122443;23;20006;-76
2021/06/14 09:35:47;;;;;;;23.15;15.50;;;16.50;80.70;;;;;;6120400;23;20085;-76
2021/06/14 09:38:18;;;;;;;24.10;15.93;;;16.50;80.70;;;;;;6120925;23;20037;-76
2021/06/14 09:40:51;;;;;;;24.80;14.70;;;16.60;80.80;;;;;;6120706;23;20012;-76
2021/06/14 09:43:29;;;;;;;20.98;14.82;;;16.60;80.90;;;;;;6121226;23;20419;-76
2021/06/14 09:45:57;;;;;;;19.17;14.90;;;16.60;80.90;;;;;;6121779;23;20009;-76
2021/06/14 09:48:29;;;;;;;22.27;13.88;;;16.70;81.00;;;;;;6120892;23;20373;-75
2021/06/14 09:50:58;;;;;;;19.88;14.02;;;16.70;81.10;;;;;;6122223;23;19998;-75
2021/06/14 09:53:30;;;;;;;21.73;14.07;;;16.70;81.20;;;;;;6120480;23;20562;-76
2021/06/14 09:55:56;;;;;;;21.20;13.55;;;16.80;81.30;;;;;;6119899;23;20089;-76
2021/06/14 09:58:26;;;;;;;21.48;13.32;;;16.80;81.10;;;;;;6120639;23;20009;-76
2021/06/14 10:01:03;;;;;;;20.83;15.32;;;16.80;81.10;;;;;;6120686;23;20006;-75
2021/06/14 10:03:44;;;;;;;23.05;14.52;;;16.90;81.10;;;;;;6121672;23;20002;-76
2021/06/14 10:06:11;;;;;;;25.63;14.93;;;16.90;81.00;;;;;;6118755;23;20391;-76
2021/06/14 10:08:38;;;;;;;27.25;16.60;;;16.90;81.00;;;;;;6121362;23;20024;-75
2021/06/14 10:11:16;;;;;;;19.95;15.65;;;17.00;81.10;;;;;;6120987;23;20012;-75
2021/06/14 10:13:45;;;;;;;23.48;16.05;;;17.00;81.60;;;;;;6121038;23;20080;-76
2021/06/14 10:16:21;;;;;;;36.67;19.88;;;17.00;80.80;;;;;;6121771;23;20076;-76
2021/06/14 10:18:59;;;;;;;28.08;16.17;;;17.00;80.70;;;;;;6120676;23;20044;-76
2021/06/14 10:21:33;;;;;;;30.48;16.60;;;17.10;80.70;;;;;;6116038;23;20013;-76
2021/06/14 10:24:05;;;;;;;31.27;17.95;;;17.20;80.50;;;;;;6118889;23;20187;-76
2021/06/14 10:26:37;;;;;;;30.00;17.83;;;17.20;80.40;;;;;;6121256;23;20002;-76
2021/06/14 10:29:08;;;;;;;28.38;17.38;;;17.30;80.30;;;;;;6119602;23;20006;-76
2021/06/14 10:31:36;;;;;;;28.15;16.10;;;17.30;80.10;;;;;;6120361;23;20081;-76
2021/06/14 10:34:03;;;;;;;21.50;16.05;;;17.30;80.00;;;;;;6121500;23;20014;-76
2021/06/14 10:36:30;;;;;;;20.17;15.15;;;17.40;79.70;;;;;;6120325;23;19994;-76
2021/06/14 10:38:59;;;;;;;25.25;16.65;;;17.40;79.70;;;;;;6121398;23;20037;-76
2021/06/14 10:41:26;;;;;;;19.75;15.30;;;17.50;79.60;;;;;;6120601;23;20319;-76
2021/06/14 10:43:53;;;;;;;17.33;13.40;;;17.50;79.30;;;;;;6121602;23;20006;-75
2021/06/14 10:46:25;;;;;;;20.73;15.13;;;17.60;79.20;;;;;;6121404;23;20134;-75
2021/06/14 10:48:57;;;;;;;25.83;16.10;;;17.60;78.90;;;;;;6120347;23;20029;-75
2021/06/14 10:51:25;;;;;;;20.60;14.05;;;17.70;78.90;;;;;;6119638;23;20052;-75
2021/06/14 10:53:52;;;;;;;21.95;14.57;;;17.70;78.60;;;;;;6120237;23;20002;-75
2021/06/14 10:56:27;;;;;;;19.92;13.88;;;17.80;78.50;;;;;;6121764;23;20027;-77
2021/06/14 10:59:15;;;;;;;22.25;13.75;;;17.80;78.40;;;;;;6120889;23;20014;-76
2021/06/14 11:01:44;;;;;;;18.02;12.68;;;17.80;78.40;;;;;;6115631;23;20009;-76
2021/06/14 11:04:25;;;;;;;17.42;12.63;;;17.90;78.40;;;;;;6121254;23;20006;-77
2021/06/14 11:06:53;;;;;;;18.20;11.07;;;17.90;78.50;;;;;;6118422;23;20109;-76
2021/06/14 11:09:20;;;;;;;18.58;12.23;;;18.00;78.50;;;;;;6120986;23;20349;-76
2021/06/14 11:11:58;;;;;;;19.40;11.65;;;18.10;78.40;;;;;;6120260;23;20049;-76
2021/06/14 11:14:44;;;;;;;18.17;13.82;;;18.10;78.20;;;;;;6119337;23;20013;-76
2021/06/14 11:17:24;;;;;;;25.05;17.20;;;18.20;78.10;;;;;;6119683;23;20061;-76
2021/06/14 11:19:51;;;;;;;21.52;16.02;;;18.30;77.90;;;;;;6119323;23;20010;-76
2021/06/14 11:22:19;;;;;;;22.33;13.52;;;18.30;77.50;;;;;;6120276;23;20334;-76
2021/06/14 11:24:47;;;;;;;21.42;12.85;;;18.30;77.40;;;;;;6118682;23;19998;-76
2021/06/14 11:27:14;;;;;;;15.40;10.35;;;18.40;77.30;;;;;;6120739;23;20073;-76
2021/06/14 11:29:52;;;;;;;18.17;11.02;;;18.40;77.20;;;;;;6120080;23;20005;-76
2021/06/14 11:32:21;;;;;;;15.93;9.50;;;18.40;77.00;;;;;;6120049;23;20018;-76
2021/06/14 11:34:59;;;;;;;13.48;9.90;;;18.40;77.00;;;;;;6121025;23;20013;-76
2021/06/14 11:37:44;;;;;;;12.25;8.43;;;18.50;76.90;;;;;;6120598;23;20084;-76
2021/06/14 11:40:14;;;;;;;13.27;8.47;;;18.60;76.70;;;;;;6122290;23;20426;-76
2021/06/14 11:42:49;;;;;;;11.73;7.78;;;18.60;76.60;;;;;;6123168;23;20232;-76
2021/06/14 11:45:33;;;;;;;10.15;7.55;;;18.60;76.40;;;;;;6121794;23;20052;-76
2021/06/14 11:48:03;;;;;;;12.75;7.43;;;18.70;76.30;;;;;;6122752;23;20423;-76
2021/06/14 11:50:33;;;;;;;11.85;7.63;;;18.70;75.90;;;;;;6121429;23;20017;-76
2021/06/14 11:53:05;;;;;;;11.05;7.10;;;18.70;75.90;;;;;;6123174;23;20397;-75
2021/06/14 11:55:34;;;;;;;13.20;6.28;;;18.70;75.80;;;;;;6122569;23;20073;-76
2021/06/14 11:58:03;;;;;;;15.70;6.85;;;18.80;75.70;;;;;;6122155;23;20034;-76
2021/06/14 12:00:34;;;;;;;14.65;6.57;;;18.80;75.50;;;;;;6122538;23;20014;-77
2021/06/14 12:03:01;;;;;;;11.18;6.32;;;18.90;75.40;;;;;;6121354;23;20006;-76
2021/06/14 12:05:32;;;;;;;8.25;5.68;;;18.90;75.30;;;;;;6120256;23;20014;-76
2021/06/14 12:08:00;;;;;;;13.27;6.53;;;18.90;75.10;;;;;;6121664;23;20002;-76
2021/06/14 12:10:27;;;;;;;11.07;6.22;;;18.90;75.00;;;;;;6122005;23;20079;-76
2021/06/14 12:13:16;;;;;;;11.70;6.32;;;19.00;75.00;;;;;;6122307;23;20009;-76
2021/06/14 12:15:43;;;;;;;9.02;5.38;;;19.00;74.80;;;;;;6121363;23;19994;-76
2021/06/14 12:18:13;;;;;;;9.52;5.53;;;19.00;74.70;;;;;;6122457;23;20042;-76
2021/06/14 12:20:42;;;;;;;9.55;5.50;;;19.10;74.70;;;;;;6121063;23;20077;-76
2021/06/14 12:23:12;;;;;;;9.02;5.18;;;19.10;74.50;;;;;;6122008;23;20435;-76
2021/06/14 12:25:41;;;;;;;9.68;5.97;;;19.20;74.50;;;;;;6122021;23;20050;-76
2021/06/14 12:28:10;;;;;;;7.75;5.85;;;19.20;74.30;;;;;;6121853;23;19990;-76
2021/06/14 12:30:37;;;;;;;10.95;6.05;;;19.30;74.40;;;;;;6122497;23;20005;-76
2021/06/14 12:33:04;;;;;;;7.22;5.95;;;19.30;74.10;;;;;;6120445;23;20026;-76
2021/06/14 12:35:33;;;;;;;8.45;5.78;;;19.30;74.10;;;;;;6122187;23;20411;-76
2021/06/14 12:38:09;;;;;;;8.57;5.03;;;19.30;73.90;;;;;;6121621;23;20027;-76
2021/06/14 12:40:39;;;;;;;10.80;6.07;;;19.40;73.80;;;;;;6121934;23;20096;-76
2021/06/14 12:43:09;;;;;;;7.25;4.95;;;19.40;73.60;;;;;;6121841;23;20005;-76
2021/06/14 12:45:38;;;;;;;8.25;5.53;;;19.40;73.80;;;;;;6121579;23;20406;-76
2021/06/14 12:48:08;;;;;;;7.65;5.05;;;19.50;73.50;;;;;;6122514;23;20002;-76
2021/06/14 12:50:42;;;;;;;10.18;5.88;;;19.50;73.40;;;;;;6118861;23;20005;-77